Private Wetterstation Sandau
Wetterdaten: Donnerstag, 05.07.2012
Datum Zeit Temp. A. Feuchte A. Luftdruck Regen Wind Richtung Richtung Taupunkt Windchill
05.07.2012 00:01 19,2 C 77 % 1016,0 hPa 0,0 l/m 1,8 km/h (1 Bft) O-NO 67 15,1 C 19,2 C
05.07.2012 00:06 19,1 C 77 % 1015,8 hPa 0,0 l/m 4,7 km/h (1 Bft) NO 45 15,0 C 19,1 C
05.07.2012 00:11 19,1 C 77 % 1015,9 hPa 0,0 l/m 3,2 km/h (1 Bft) O-NO 67 15,0 C 19,1 C
05.07.2012 00:16 18,9 C 78 % 1015,8 hPa 0,0 l/m 2,5 km/h (1 Bft) O-SO 112 15,0 C 18,9 C
05.07.2012 00:21 18,9 C 78 % 1016,0 hPa 0,0 l/m 3,6 km/h (1 Bft) O-NO 67 15,0 C 18,9 C
05.07.2012 00:26 18,8 C 79 % 1016,0 hPa 0,0 l/m 2,5 km/h (1 Bft) O-NO 67 15,1 C 18,8 C
05.07.2012 00:31 18,8 C 79 % 1016,1 hPa 0,0 l/m 4,0 km/h (1 Bft) O 90 15,1 C 18,8 C
05.07.2012 00:36 18,6 C 79 % 1016,2 hPa 0,0 l/m 3,2 km/h (1 Bft) O-NO 67 14,9 C 18,6 C
05.07.2012 00:41 18,5 C 79 % 1016,2 hPa 0,0 l/m 2,5 km/h (1 Bft) O-NO 67 14,8 C 18,5 C
05.07.2012 00:46 18,4 C 80 % 1016,1 hPa 0,0 l/m 7,2 km/h (2 Bft) NO 45 14,9 C 18,4 C
05.07.2012 00:51 18,3 C 80 % 1016,2 hPa 0,0 l/m 2,2 km/h (1 Bft) O-NO 67 14,8 C 18,3 C
05.07.2012 00:56 18,3 C 80 % 1016,2 hPa 0,0 l/m 2,5 km/h (1 Bft) O 90 14,8 C 18,3 C
05.07.2012 01:01 18,2 C 81 % 1016,1 hPa 0,0 l/m 3,2 km/h (1 Bft) NO 45 14,9 C 18,2 C
05.07.2012 01:06 18,1 C 81 % 1016,2 hPa 0,0 l/m 3,6 km/h (1 Bft) O-SO 112 14,8 C 18,1 C
05.07.2012 01:11 18,0 C 81 % 1016,2 hPa 0,0 l/m 3,6 km/h (1 Bft) NO 45 14,7 C 18,0 C
05.07.2012 01:16 17,9 C 81 % 1016,2 hPa 0,0 l/m 9,4 km/h (2 Bft) O 90 14,6 C 17,9 C
05.07.2012 01:21 17,8 C 82 % 1016,2 hPa 0,0 l/m 8,6 km/h (2 Bft) O 90 14,7 C 17,8 C
05.07.2012 01:26 17,8 C 82 % 1016,1 hPa 0,0 l/m 10,1 km/h (2 Bft) O-NO 67 14,7 C 17,8 C
05.07.2012 01:31 17,6 C 82 % 1016,2 hPa 0,0 l/m 2,9 km/h (1 Bft) SO 135 14,5 C 17,6 C
05.07.2012 01:36 17,6 C 82 % 1016,3 hPa 0,0 l/m 3,2 km/h (1 Bft) O 90 14,5 C 17,6 C
05.07.2012 01:41 17,5 C 83 % 1016,2 hPa 0,0 l/m 5,8 km/h (2 Bft) O 90 14,6 C 17,5 C
05.07.2012 01:46 17,4 C 83 % 1016,1 hPa 0,0 l/m 7,9 km/h (2 Bft) NO 45 14,5 C 17,4 C
05.07.2012 01:51 17,3 C 84 % 1016,1 hPa 0,0 l/m 9,4 km/h (2 Bft) O-SO 112 14,6 C 17,3 C
05.07.2012 01:56 17,3 C 84 % 1016,2 hPa 0,0 l/m 1,4 km/h (1 Bft) O-NO 67 14,6 C 17,3 C
05.07.2012 02:01 17,2 C 84 % 1016,0 hPa 0,0 l/m 3,6 km/h (1 Bft) NO 45 14,5 C 17,2 C
05.07.2012 02:06 17,1 C 84 % 1016,1 hPa 0,0 l/m 10,8 km/h (2 Bft) O-NO 67 14,4 C 17,1 C
05.07.2012 02:11 17,1 C 84 % 1016,1 hPa 0,0 l/m 6,5 km/h (2 Bft) O-NO 67 14,4 C 17,1 C
05.07.2012 02:16 17,0 C 85 % 1016,0 hPa 0,0 l/m 4,3 km/h (1 Bft) O-NO 67 14,5 C 17,0 C
05.07.2012 02:21 16,9 C 85 % 1015,8 hPa 0,0 l/m 2,9 km/h (1 Bft) O 90 14,4 C 16,9 C
05.07.2012 02:26 16,9 C 85 % 1015,8 hPa 0,0 l/m 5,0 km/h (1 Bft) O-NO 67 14,4 C 16,9 C
05.07.2012 02:31 16,9 C 85 % 1015,7 hPa 0,0 l/m 5,0 km/h (1 Bft) O-SO 112 14,4 C 16,9 C
05.07.2012 02:36 16,9 C 85 % 1015,8 hPa 0,0 l/m 7,2 km/h (2 Bft) O-SO 112 14,4 C 16,9 C
05.07.2012 02:41 16,9 C 85 % 1015,9 hPa 0,0 l/m 9,4 km/h (2 Bft) O-SO 112 14,4 C 16,9 C
05.07.2012 02:46 16,9 C 85 % 1016,0 hPa 0,0 l/m 6,1 km/h (2 Bft) O-SO 112 14,4 C 16,9 C
05.07.2012 02:51 16,9 C 85 % 1015,8 hPa 0,0 l/m 13,3 km/h (3 Bft) O 90 14,4 C 16,9 C
05.07.2012 02:56 16,9 C 85 % 1015,9 hPa 0,0 l/m 5,0 km/h (1 Bft) O 90 14,4 C 16,9 C
05.07.2012 03:01 16,9 C 85 % 1015,8 hPa 0,0 l/m 4,7 km/h (1 Bft) O-SO 112 14,4 C 16,9 C
05.07.2012 03:06 16,8 C 85 % 1015,7 hPa 0,0 l/m 5,8 km/h (2 Bft) O-NO 67 14,3 C 16,8 C
05.07.2012 03:11 16,7 C 85 % 1015,7 hPa 0,0 l/m 4,7 km/h (1 Bft) NO 45 14,2 C 16,7 C
05.07.2012 03:16 16,6 C 86 % 1015,7 hPa 0,0 l/m 6,8 km/h (2 Bft) O 90 14,2 C 16,6 C
05.07.2012 03:21 16,5 C 86 % 1015,6 hPa 0,0 l/m 7,6 km/h (2 Bft) O 90 14,1 C 16,5 C
05.07.2012 03:26 16,4 C 86 % 1015,6 hPa 0,0 l/m 11,2 km/h (2 Bft) O-NO 67 14,1 C 16,4 C
05.07.2012 03:31 16,4 C 86 % 1015,6 hPa 0,0 l/m 7,2 km/h (2 Bft) O-NO 67 14,1 C 16,4 C
05.07.2012 03:36 16,3 C 86 % 1015,8 hPa 0,0 l/m 10,4 km/h (2 Bft) O-NO 67 14,0 C 16,3 C
05.07.2012 03:41 16,3 C 87 % 1015,7 hPa 0,0 l/m 7,2 km/h (2 Bft) O 90 14,1 C 16,3 C
05.07.2012 03:46 16,2 C 87 % 1015,6 hPa 0,0 l/m 4,0 km/h (1 Bft) O-NO 67 14,0 C 16,2 C
05.07.2012 03:51 16,2 C 87 % 1015,6 hPa 0,0 l/m 3,6 km/h (1 Bft) O-NO 67 14,0 C 16,2 C
05.07.2012 03:56 16,1 C 87 % 1015,5 hPa 0,0 l/m 7,6 km/h (2 Bft) O 90 13,9 C 16,1 C
05.07.2012 04:01 16,1 C 87 % 1015,6 hPa 0,0 l/m 5,8 km/h (2 Bft) O 90 13,9 C 16,1 C
05.07.2012 04:06 16,1 C 87 % 1015,6 hPa 0,0 l/m 4,0 km/h (1 Bft) O 90 13,9 C 16,1 C
05.07.2012 04:11 16,0 C 87 % 1015,6 hPa 0,0 l/m 0,0 km/h (0 Bft) O-NO 67 13,8 C 16,0 C
05.07.2012 04:16 15,9 C 88 % 1015,4 hPa 0,0 l/m 2,9 km/h (1 Bft) O-NO 67 13,9 C 15,9 C
05.07.2012 04:21 15,9 C 87 % 1015,2 hPa 0,0 l/m 5,0 km/h (1 Bft) O-SO 112 13,7 C 15,9 C
05.07.2012 04:26 15,9 C 87 % 1015,0 hPa 0,0 l/m 3,2 km/h (1 Bft) O 90 13,7 C 15,9 C
05.07.2012 04:31 15,9 C 87 % 1015,0 hPa 0,0 l/m 6,1 km/h (2 Bft) O 90 13,7 C 15,9 C
05.07.2012 04:36 15,8 C 87 % 1015,0 hPa 0,0 l/m 4,7 km/h (1 Bft) O-SO 112 13,6 C 15,8 C
05.07.2012 04:41 15,8 C 87 % 1015,0 hPa 0,0 l/m 5,4 km/h (1 Bft) O 90 13,6 C 15,8 C
05.07.2012 04:46 15,7 C 88 % 1015,1 hPa 0,0 l/m 3,6 km/h (1 Bft) O-NO 67 13,7 C 15,7 C
05.07.2012 04:51 15,7 C 88 % 1015,2 hPa 0,0 l/m 7,6 km/h (2 Bft) O-NO 67 13,7 C 15,7 C
05.07.2012 04:56 15,8 C 88 % 1015,2 hPa 0,0 l/m 7,2 km/h (2 Bft) NO 45 13,8 C 15,8 C
05.07.2012 05:01 15,7 C 88 % 1015,2 hPa 0,0 l/m 5,4 km/h (1 Bft) O 90 13,7 C 15,7 C
05.07.2012 05:06 15,7 C 89 % 1015,1 hPa 0,0 l/m 4,0 km/h (1 Bft) O-NO 67 13,9 C 15,7 C
05.07.2012 05:11 15,8 C 89 % 1015,2 hPa 0,0 l/m 6,5 km/h (2 Bft) O-NO 67 14,0 C 15,8 C
05.07.2012 05:16 15,8 C 89 % 1015,2 hPa 0,0 l/m 8,6 km/h (2 Bft) O-NO 67 14,0 C 15,8 C
05.07.2012 05:21 15,8 C 90 % 1015,1 hPa 0,0 l/m 4,0 km/h (1 Bft) O-NO 67 14,2 C 15,8 C
05.07.2012 05:26 15,8 C 90 % 1015,0 hPa 0,0 l/m 5,0 km/h (1 Bft) SO 135 14,2 C 15,8 C
05.07.2012 05:31 15,9 C 90 % 1015,0 hPa 0,0 l/m 6,8 km/h (2 Bft) O 90 14,3 C 15,9 C
05.07.2012 05:36 15,9 C 90 % 1015,0 hPa 0,0 l/m 9,4 km/h (2 Bft) O 90 14,3 C 15,9 C
05.07.2012 05:41 15,9 C 90 % 1015,0 hPa 0,0 l/m 2,2 km/h (1 Bft) O-NO 67 14,3 C 15,9 C
05.07.2012 05:46 15,9 C 90 % 1015,1 hPa 0,0 l/m 7,2 km/h (2 Bft) O 90 14,3 C 15,9 C
05.07.2012 05:51 15,9 C 90 % 1015,1 hPa 0,0 l/m 3,6 km/h (1 Bft) O-NO 67 14,3 C 15,9 C
05.07.2012 05:56 15,9 C 90 % 1015,1 hPa 0,0 l/m 7,9 km/h (2 Bft) O-NO 67 14,3 C 15,9 C
05.07.2012 06:01 16,0 C 91 % 1015,3 hPa 0,0 l/m 7,6 km/h (2 Bft) O-SO 112 14,5 C 16,0 C
05.07.2012 06:06 16,1 C 91 % 1015,2 hPa 0,0 l/m 4,0 km/h (1 Bft) O-NO 67 14,6 C 16,1 C
05.07.2012 06:11 16,1 C 91 % 1015,0 hPa 0,0 l/m 4,0 km/h (1 Bft) NO 45 14,6 C 16,1 C
05.07.2012 06:16 16,2 C 91 % 1015,0 hPa 0,0 l/m 6,1 km/h (2 Bft) NO 45 14,7 C 16,2 C
05.07.2012 06:21 16,2 C 91 % 1015,1 hPa 0,0 l/m 8,6 km/h (2 Bft) O-NO 67 14,7 C 16,2 C
05.07.2012 06:26 16,3 C 91 % 1015,2 hPa 0,0 l/m 5,0 km/h (1 Bft) O-SO 112 14,8 C 16,3 C
05.07.2012 06:31 16,3 C 91 % 1015,1 hPa 0,0 l/m 15,1 km/h (3 Bft) O 90 14,8 C 16,3 C
05.07.2012 06:36 16,4 C 91 % 1015,1 hPa 0,0 l/m 13,7 km/h (3 Bft) O 90 14,9 C 16,4 C
05.07.2012 06:41 16,4 C 91 % 1015,1 hPa 0,0 l/m 5,4 km/h (1 Bft) O 90 14,9 C 16,4 C
05.07.2012 06:46 16,4 C 91 % 1015,2 hPa 0,0 l/m 8,3 km/h (2 Bft) O-NO 67 14,9 C 16,4 C
05.07.2012 06:51 16,5 C 91 % 1015,4 hPa 0,0 l/m 4,7 km/h (1 Bft) O-NO 67 15,0 C 16,5 C
05.07.2012 06:56 16,6 C 91 % 1015,4 hPa 0,0 l/m 5,4 km/h (1 Bft) O 90 15,1 C 16,6 C
05.07.2012 07:01 16,8 C 91 % 1015,4 hPa 0,0 l/m 3,2 km/h (1 Bft) O 90 15,3 C 16,8 C
05.07.2012 07:06 16,8 C 91 % 1015,4 hPa 0,0 l/m 5,8 km/h (2 Bft) O 90 15,3 C 16,8 C
05.07.2012 07:11 16,9 C 91 % 1015,4 hPa 0,0 l/m 5,8 km/h (2 Bft) O-NO 67 15,4 C 16,9 C
05.07.2012 07:16 16,9 C 91 % 1015,6 hPa 0,0 l/m 2,5 km/h (1 Bft) NO 45 15,4 C 16,9 C
05.07.2012 07:21 16,9 C 91 % 1015,6 hPa 0,0 l/m 4,3 km/h (1 Bft) O-NO 67 15,4 C 16,9 C
05.07.2012 07:26 17,0 C 91 % 1015,5 hPa 0,0 l/m 1,8 km/h (1 Bft) O-NO 67 15,5 C 17,0 C
05.07.2012 07:31 17,1 C 91 % 1015,5 hPa 0,0 l/m 5,4 km/h (1 Bft) O-NO 67 15,6 C 17,1 C
05.07.2012 07:36 17,2 C 91 % 1015,4 hPa 0,0 l/m 4,7 km/h (1 Bft) O-NO 67 15,7 C 17,2 C
05.07.2012 07:41 17,2 C 91 % 1015,4 hPa 0,0 l/m 6,8 km/h (2 Bft) O-NO 67 15,7 C 17,2 C
05.07.2012 07:46 17,3 C 91 % 1015,4 hPa 0,0 l/m 10,8 km/h (2 Bft) NO 45 15,8 C 17,3 C
05.07.2012 07:51 17,3 C 91 % 1015,4 hPa 0,0 l/m 12,6 km/h (3 Bft) O-NO 67 15,8 C 17,3 C
05.07.2012 07:56 17,4 C 91 % 1015,5 hPa 0,0 l/m 2,9 km/h (1 Bft) O-NO 67 15,9 C 17,4 C
05.07.2012 08:01 17,4 C 90 % 1015,3 hPa 0,0 l/m 2,5 km/h (1 Bft) SO 135 15,7 C 17,4 C
05.07.2012 08:06 17,5 C 91 % 1015,5 hPa 0,0 l/m 5,0 km/h (1 Bft) O-NO 67 16,0 C 17,5 C
05.07.2012 08:11 17,6 C 90 % 1015,6 hPa 0,0 l/m 1,8 km/h (1 Bft) O-NO 67 15,9 C 17,6 C
05.07.2012 08:16 17,7 C 90 % 1015,5 hPa 0,0 l/m 5,8 km/h (2 Bft) O-NO 67 16,0 C 17,7 C
05.07.2012 08:21 17,8 C 90 % 1015,4 hPa 0,0 l/m 5,4 km/h (1 Bft) SO 135 16,1 C 17,8 C
05.07.2012 08:26 17,9 C 90 % 1015,4 hPa 0,0 l/m 1,8 km/h (1 Bft) O-NO 67 16,2 C 17,9 C
05.07.2012 08:31 17,9 C 89 % 1015,5 hPa 0,0 l/m 6,1 km/h (2 Bft) NO 45 16,1 C 17,9 C
05.07.2012 08:36 18,0 C 90 % 1015,6 hPa 0,0 l/m 4,0 km/h (1 Bft) N-NW 337 16,3 C 18,0 C
05.07.2012 08:41 18,1 C 90 % 1015,6 hPa 0,0 l/m 8,6 km/h (2 Bft) O-NO 67 16,4 C 18,1 C
05.07.2012 08:46 18,2 C 89 % 1015,5 hPa 0,0 l/m 6,8 km/h (2 Bft) NO 45 16,4 C 18,2 C
05.07.2012 08:51 18,3 C 89 % 1015,4 hPa 0,0 l/m 9,7 km/h (2 Bft) O-SO 112 16,5 C 18,3 C
05.07.2012 08:56 18,4 C 89 % 1015,3 hPa 0,0 l/m 10,1 km/h (2 Bft) O 90 16,6 C 18,4 C
05.07.2012 09:01 18,4 C 89 % 1015,2 hPa 0,0 l/m 8,3 km/h (2 Bft) O-NO 67 16,6 C 18,4 C
05.07.2012 09:06 18,5 C 88 % 1015,2 hPa 0,0 l/m 3,6 km/h (1 Bft) O-SO 112 16,5 C 18,5 C
05.07.2012 09:11 18,6 C 88 % 1015,0 hPa 0,0 l/m 7,6 km/h (2 Bft) NO 45 16,6 C 18,6 C
05.07.2012 09:16 18,7 C 88 % 1015,0 hPa 0,0 l/m 4,7 km/h (1 Bft) NO 45 16,7 C 18,7 C
05.07.2012 09:21 18,9 C 88 % 1015,1 hPa 0,0 l/m 1,4 km/h (1 Bft) O-NO 67 16,9 C 18,9 C
05.07.2012 09:26 19,1 C 88 % 1015,2 hPa 0,0 l/m 2,2 km/h (1 Bft) O-NO 67 17,1 C 19,1 C
05.07.2012 09:31 19,1 C 87 % 1015,2 hPa 0,0 l/m 4,7 km/h (1 Bft) N-NO 22 16,9 C 19,1 C
05.07.2012 09:36 19,3 C 87 % 1015,3 hPa 0,0 l/m 8,3 km/h (2 Bft) NO 45 17,1 C 19,3 C
05.07.2012 09:41 19,3 C 86 % 1015,3 hPa 0,0 l/m 8,3 km/h (2 Bft) O-SO 112 16,9 C 19,3 C
05.07.2012 09:46 19,4 C 86 % 1015,2 hPa 0,0 l/m 2,9 km/h (1 Bft) NO 45 17,0 C 19,4 C
05.07.2012 09:51 19,4 C 86 % 1015,2 hPa 0,0 l/m 1,1 km/h (1 Bft) O-NO 67 17,0 C 19,4 C
05.07.2012 09:56 19,6 C 86 % 1015,3 hPa 0,0 l/m 10,4 km/h (2 Bft) O-NO 67 17,2 C 19,6 C
05.07.2012 10:01 19,7 C 86 % 1015,3 hPa 0,0 l/m 4,0 km/h (1 Bft) O-SO 112 17,3 C 19,7 C
05.07.2012 10:06 19,8 C 86 % 1015,4 hPa 0,0 l/m 3,6 km/h (1 Bft) O-SO 112 17,4 C 19,8 C
05.07.2012 10:11 19,9 C 85 % 1015,3 hPa 0,0 l/m 6,5 km/h (2 Bft) SO 135 17,3 C 19,9 C
05.07.2012 10:16 19,9 C 85 % 1015,3 hPa 0,0 l/m 6,5 km/h (2 Bft) O-NO 67 17,3 C 19,9 C
05.07.2012 10:21 19,9 C 85 % 1015,3 hPa 0,0 l/m 10,1 km/h (2 Bft) O-NO 67 17,3 C 19,9 C
05.07.2012 10:26 19,9 C 85 % 1015,2 hPa 0,0 l/m 8,3 km/h (2 Bft) SO 135 17,3 C 19,9 C
05.07.2012 10:31 20,0 C 85 % 1015,3 hPa 0,0 l/m 9,7 km/h (2 Bft) O-NO 67 17,4 C 20,0 C
05.07.2012 10:36 20,1 C 85 % 1015,1 hPa 0,0 l/m 5,0 km/h (1 Bft) O-NO 67 17,5 C 20,1 C
05.07.2012 10:41 20,1 C 85 % 1015,2 hPa 0,0 l/m 6,8 km/h (2 Bft) O-NO 67 17,5 C 20,1 C
05.07.2012 10:46 20,2 C 84 % 1015,5 hPa 0,0 l/m 3,6 km/h (1 Bft) O 90 17,4 C 20,2 C
05.07.2012 10:51 20,4 C 84 % 1015,2 hPa 0,0 l/m 7,9 km/h (2 Bft) NO 45 17,6 C 20,4 C
05.07.2012 10:56 20,6 C 83 % 1015,2 hPa 0,0 l/m 5,8 km/h (2 Bft) NO 45 17,6 C 20,6 C
05.07.2012 11:01 20,8 C 83 % 1015,3 hPa 0,0 l/m 2,2 km/h (1 Bft) O-NO 67 17,8 C 20,8 C
05.07.2012 11:06 21,0 C 82 % 1015,1 hPa 0,0 l/m 6,1 km/h (2 Bft) O-NO 67 17,8 C 21,0 C
05.07.2012 11:11 21,3 C 82 % 1015,1 hPa 0,0 l/m 6,1 km/h (2 Bft) O 90 18,1 C 21,3 C
05.07.2012 11:16 21,6 C 81 % 1015,1 hPa 0,0 l/m 6,5 km/h (2 Bft) S-SO 157 18,2 C 21,6 C
05.07.2012 11:21 21,8 C 80 % 1015,0 hPa 0,0 l/m 5,8 km/h (2 Bft) O 90 18,2 C 21,8 C
05.07.2012 11:26 21,9 C 79 % 1015,0 hPa 0,0 l/m 4,0 km/h (1 Bft) NO 45 18,1 C 21,9 C
05.07.2012 11:31 21,9 C 79 % 1015,0 hPa 0,0 l/m 5,8 km/h (2 Bft) O 90 18,1 C 21,9 C
05.07.2012 11:36 21,9 C 79 % 1015,0 hPa 0,0 l/m 2,5 km/h (1 Bft) O-NO 67 18,1 C 21,9 C
05.07.2012 11:41 21,9 C 79 % 1015,0 hPa 0,0 l/m 5,0 km/h (1 Bft) N-NO 22 18,1 C 21,9 C
05.07.2012 11:46 21,9 C 78 % 1015,1 hPa 0,0 l/m 3,6 km/h (1 Bft) O-NO 67 17,9 C 21,9 C
05.07.2012 11:51 22,0 C 79 % 1015,1 hPa 0,0 l/m 4,3 km/h (1 Bft) NO 45 18,2 C 22,0 C
05.07.2012 11:56 22,4 C 78 % 1015,1 hPa 0,0 l/m 2,9 km/h (1 Bft) O-NO 67 18,4 C 22,4 C
05.07.2012 12:01 22,6 C 77 % 1015,0 hPa 0,0 l/m 4,0 km/h (1 Bft) NO 45 18,4 C 22,6 C
05.07.2012 12:06 22,9 C 77 % 1014,9 hPa 0,0 l/m 4,0 km/h (1 Bft) NO 45 18,6 C 22,9 C
05.07.2012 12:11 23,2 C 75 % 1015,0 hPa 0,0 l/m 7,9 km/h (2 Bft) O-SO 112 18,5 C 23,2 C
05.07.2012 12:16 23,3 C 75 % 1015,0 hPa 0,0 l/m 11,2 km/h (2 Bft) O-SO 112 18,6 C 23,3 C
05.07.2012 12:21 23,2 C 75 % 1014,9 hPa 0,0 l/m 7,2 km/h (2 Bft) O 90 18,5 C 23,2 C
05.07.2012 12:26 23,3 C 75 % 1014,9 hPa 0,0 l/m 8,3 km/h (2 Bft) O 90 18,6 C 23,3 C
05.07.2012 12:31 23,4 C 75 % 1014,9 hPa 0,0 l/m 11,9 km/h (2 Bft) O-NO 67 18,7 C 23,4 C
05.07.2012 12:36 23,6 C 73 % 1014,8 hPa 0,0 l/m 9,7 km/h (2 Bft) O-SO 112 18,5 C 23,6 C
05.07.2012 12:41 24,0 C 73 % 1014,7 hPa 0,0 l/m 13,3 km/h (3 Bft) O-NO 67 18,9 C 24,0 C
05.07.2012 12:46 24,1 C 71 % 1014,6 hPa 0,0 l/m 5,4 km/h (1 Bft) O-NO 67 18,5 C 24,1 C
05.07.2012 12:51 24,2 C 71 % 1014,6 hPa 0,0 l/m 3,2 km/h (1 Bft) O-NO 67 18,6 C 24,2 C
05.07.2012 12:56 24,4 C 71 % 1014,5 hPa 0,0 l/m 9,4 km/h (2 Bft) NO 45 18,8 C 24,4 C
05.07.2012 13:01 24,8 C 69 % 1014,5 hPa 0,0 l/m 14,4 km/h (3 Bft) O-SO 112 18,7 C 24,8 C
05.07.2012 13:06 24,9 C 68 % 1014,5 hPa 0,0 l/m 6,5 km/h (2 Bft) N-NO 22 18,6 C 24,9 C
05.07.2012 13:11 25,1 C 68 % 1014,4 hPa 0,0 l/m 10,1 km/h (2 Bft) NO 45 18,8 C 25,1 C
05.07.2012 13:16 25,3 C 66 % 1014,5 hPa 0,0 l/m 8,3 km/h (2 Bft) O-NO 67 18,5 C 25,3 C
05.07.2012 13:21 25,1 C 65 % 1014,3 hPa 0,0 l/m 9,4 km/h (2 Bft) O 90 18,0 C 25,1 C
05.07.2012 13:26 24,9 C 66 % 1014,2 hPa 0,0 l/m 5,4 km/h (1 Bft) O-NO 67 18,1 C 24,9 C
05.07.2012 13:31 24,9 C 67 % 1014,2 hPa 0,0 l/m 4,0 km/h (1 Bft) S-SO 157 18,3 C 24,9 C
05.07.2012 13:36 25,1 C 67 % 1014,1 hPa 0,0 l/m 4,3 km/h (1 Bft) NO 45 18,5 C 25,1 C
05.07.2012 13:41 25,3 C 66 % 1014,2 hPa 0,0 l/m 12,2 km/h (2 Bft) O-NO 67 18,5 C 25,3 C
05.07.2012 13:46 25,3 C 66 % 1014,1 hPa 0,0 l/m 5,0 km/h (1 Bft) O 90 18,5 C 25,3 C
05.07.2012 13:51 25,3 C 66 % 1014,3 hPa 0,0 l/m 5,4 km/h (1 Bft) O-NO 67 18,5 C 25,3 C
05.07.2012 13:56 25,4 C 65 % 1014,0 hPa 0,0 l/m 7,9 km/h (2 Bft) NO 45 18,3 C 25,4 C
05.07.2012 14:01 25,4 C 66 % 1014,0 hPa 0,0 l/m 5,8 km/h (2 Bft) O-NO 67 18,6 C 25,4 C
05.07.2012 14:06 25,6 C 65 % 1013,9 hPa 0,0 l/m 2,2 km/h (1 Bft) O-NO 67 18,5 C 25,6 C
05.07.2012 14:11 25,5 C 65 % 1013,8 hPa 0,0 l/m 9,0 km/h (2 Bft) O-NO 67 18,4 C 25,5 C
05.07.2012 14:16 25,6 C 65 % 1013,6 hPa 0,0 l/m 11,9 km/h (2 Bft) NO 45 18,5 C 25,6 C
05.07.2012 14:21 25,8 C 64 % 1013,6 hPa 0,0 l/m 8,6 km/h (2 Bft) O-NO 67 18,5 C 25,8 C
05.07.2012 14:26 25,9 C 64 % 1013,6 hPa 0,0 l/m 9,4 km/h (2 Bft) O-NO 67 18,6 C 25,9 C
05.07.2012 14:31 26,0 C 63 % 1013,5 hPa 0,0 l/m 9,7 km/h (2 Bft) SO 135 18,4 C 26,0 C
05.07.2012 14:36 25,9 C 63 % 1013,5 hPa 0,0 l/m 11,5 km/h (2 Bft) O-NO 67 18,3 C 25,9 C
05.07.2012 14:41 25,9 C 63 % 1013,4 hPa 0,0 l/m 12,6 km/h (3 Bft) NO 45 18,3 C 25,9 C
05.07.2012 14:46 26,2 C 63 % 1013,4 hPa 0,0 l/m 6,8 km/h (2 Bft) N-NO 22 18,6 C 26,2 C
05.07.2012 14:51 26,2 C 62 % 1013,4 hPa 0,0 l/m 8,3 km/h (2 Bft) O 90 18,3 C 26,2 C
05.07.2012 14:56 26,4 C 62 % 1013,3 hPa 0,0 l/m 4,7 km/h (1 Bft) NO 45 18,5 C 26,4 C
05.07.2012 15:01 26,5 C 62 % 1013,2 hPa 0,0 l/m 11,9 km/h (2 Bft) NO 45 18,6 C 26,5 C
05.07.2012 15:06 26,4 C 61 % 1013,3 hPa 0,0 l/m 5,8 km/h (2 Bft) O-NO 67 18,3 C 26,4 C
05.07.2012 15:11 26,7 C 61 % 1013,2 hPa 0,0 l/m 7,2 km/h (2 Bft) O-SO 112 18,5 C 26,7 C
05.07.2012 15:16 26,8 C 61 % 1013,3 hPa 0,0 l/m 6,5 km/h (2 Bft) NO 45 18,6 C 26,8 C
05.07.2012 15:21 26,9 C 60 % 1013,2 hPa 0,0 l/m 14,4 km/h (3 Bft) SO 135 18,5 C 26,9 C
05.07.2012 15:26 26,6 C 60 % 1013,2 hPa 0,0 l/m 5,8 km/h (2 Bft) O-SO 112 18,2 C 26,6 C
05.07.2012 15:31 26,7 C 61 % 1012,9 hPa 0,0 l/m 15,1 km/h (3 Bft) NO 45 18,5 C 26,7 C
05.07.2012 15:36 26,5 C 61 % 1013,1 hPa 0,0 l/m 6,8 km/h (2 Bft) O-NO 67 18,4 C 26,5 C
05.07.2012 15:41 26,5 C 61 % 1012,9 hPa 0,0 l/m 7,2 km/h (2 Bft) N-NO 22 18,4 C 26,5 C
05.07.2012 15:46 26,4 C 61 % 1013,0 hPa 0,0 l/m 6,8 km/h (2 Bft) O-NO 67 18,3 C 26,4 C
05.07.2012 15:51 26,4 C 62 % 1012,9 hPa 0,0 l/m 9,7 km/h (2 Bft) O-NO 67 18,5 C 26,4 C
05.07.2012 15:56 26,5 C 61 % 1013,0 hPa 0,0 l/m 4,7 km/h (1 Bft) NO 45 18,4 C 26,5 C
05.07.2012 16:01 26,5 C 61 % 1012,8 hPa 0,0 l/m 10,1 km/h (2 Bft) O 90 18,4 C 26,5 C
05.07.2012 16:06 26,6 C 61 % 1012,7 hPa 0,0 l/m 11,2 km/h (2 Bft) NO 45 18,4 C 26,6 C
05.07.2012 16:11 26,4 C 61 % 1012,6 hPa 0,0 l/m 6,8 km/h (2 Bft) NO 45 18,3 C 26,4 C
05.07.2012 16:16 26,4 C 61 % 1012,6 hPa 0,0 l/m 20,9 km/h (4 Bft) O-SO 112 18,3 C 26,4 C
05.07.2012 16:21 26,3 C 62 % 1012,5 hPa 0,0 l/m 5,8 km/h (2 Bft) O-NO 67 18,4 C 26,3 C
05.07.2012 16:26 26,4 C 62 % 1012,7 hPa 0,0 l/m 14,4 km/h (3 Bft) O 90 18,5 C 26,4 C
05.07.2012 16:31 26,4 C 61 % 1012,8 hPa 0,0 l/m 6,8 km/h (2 Bft) O-NO 67 18,3 C 26,4 C
05.07.2012 16:36 26,4 C 62 % 1012,9 hPa 0,0 l/m 6,1 km/h (2 Bft) O-NO 67 18,5 C 26,4 C
05.07.2012 16:41 26,4 C 62 % 1012,9 hPa 0,0 l/m 5,4 km/h (1 Bft) O-NO 67 18,5 C 26,4 C
05.07.2012 16:46 26,4 C 62 % 1012,7 hPa 0,0 l/m 5,8 km/h (2 Bft) NO 45 18,5 C 26,4 C
05.07.2012 16:51 26,4 C 62 % 1012,7 hPa 0,0 l/m 7,2 km/h (2 Bft) NO 45 18,5 C 26,4 C
05.07.2012 16:56 26,4 C 62 % 1012,6 hPa 0,0 l/m 15,8 km/h (3 Bft) O-NO 67 18,5 C 26,4 C
05.07.2012 17:01 26,4 C 62 % 1012,6 hPa 0,0 l/m 12,2 km/h (2 Bft) NO 45 18,5 C 26,4 C
05.07.2012 17:06 26,2 C 63 % 1012,5 hPa 0,0 l/m 10,1 km/h (2 Bft) O-NO 67 18,6 C 26,2 C
05.07.2012 17:11 26,2 C 63 % 1012,4 hPa 0,0 l/m 3,2 km/h (1 Bft) NO 45 18,6 C 26,2 C
05.07.2012 17:16 26,2 C 64 % 1012,4 hPa 0,0 l/m 14,4 km/h (3 Bft) O-NO 67 18,8 C 26,2 C
05.07.2012 17:21 26,1 C 63 % 1012,4 hPa 0,0 l/m 9,4 km/h (2 Bft) NO 45 18,5 C 26,1 C
05.07.2012 17:26 26,1 C 64 % 1012,2 hPa 0,0 l/m 9,4 km/h (2 Bft) O-NO 67 18,7 C 26,1 C
05.07.2012 17:31 26,2 C 64 % 1012,2 hPa 0,0 l/m 10,1 km/h (2 Bft) O 90 18,8 C 26,2 C
05.07.2012 17:36 26,1 C 64 % 1012,0 hPa 0,0 l/m 9,7 km/h (2 Bft) O 90 18,7 C 26,1 C
05.07.2012 17:41 25,9 C 64 % 1011,9 hPa 0,0 l/m 13,3 km/h (3 Bft) O-NO 67 18,6 C 25,9 C
05.07.2012 17:46 25,9 C 64 % 1011,7 hPa 0,0 l/m 7,6 km/h (2 Bft) NO 45 18,6 C 25,9 C
05.07.2012 17:51 25,9 C 64 % 1011,8 hPa 0,0 l/m 7,6 km/h (2 Bft) O-NO 67 18,6 C 25,9 C
05.07.2012 17:56 25,9 C 64 % 1011,7 hPa 0,0 l/m 4,0 km/h (1 Bft) SO 135 18,6 C 25,9 C
05.07.2012 18:01 25,9 C 64 % 1011,5 hPa 0,0 l/m 3,6 km/h (1 Bft) O 90 18,6 C 25,9 C
05.07.2012 18:06 25,9 C 64 % 1011,5 hPa 0,0 l/m 3,6 km/h (1 Bft) O-NO 67 18,6 C 25,9 C
05.07.2012 18:11 25,9 C 64 % 1011,4 hPa 0,0 l/m 9,0 km/h (2 Bft) NO 45 18,6 C 25,9 C
05.07.2012 18:16 25,9 C 65 % 1011,4 hPa 0,0 l/m 6,8 km/h (2 Bft) O 90 18,8 C 25,9 C
05.07.2012 18:21 25,9 C 65 % 1011,6 hPa 0,0 l/m 5,4 km/h (1 Bft) NO 45 18,8 C 25,9 C
05.07.2012 18:26 25,8 C 65 % 1011,6 hPa 0,0 l/m 5,0 km/h (1 Bft) O-NO 67 18,7 C 25,8 C
05.07.2012 18:31 25,7 C 65 % 1011,4 hPa 0,0 l/m 2,9 km/h (1 Bft) NO 45 18,6 C 25,7 C
05.07.2012 18:36 25,6 C 66 % 1011,6 hPa 0,0 l/m 3,6 km/h (1 Bft) O 90 18,8 C 25,6 C
05.07.2012 18:41 25,6 C 66 % 1011,7 hPa 0,0 l/m 3,6 km/h (1 Bft) O-NO 67 18,8 C 25,6 C
05.07.2012 18:46 25,6 C 66 % 1011,7 hPa 0,0 l/m 5,0 km/h (1 Bft) NO 45 18,8 C 25,6 C
05.07.2012 18:51 25,6 C 66 % 1011,7 hPa 0,0 l/m 2,5 km/h (1 Bft) O-NO 67 18,8 C 25,6 C
05.07.2012 18:56 25,5 C 66 % 1011,7 hPa 0,0 l/m 7,6 km/h (2 Bft) N-NO 22 18,7 C 25,5 C
05.07.2012 19:01 25,5 C 67 % 1011,7 hPa 0,0 l/m 3,6 km/h (1 Bft) O-NO 67 18,9 C 25,5 C
05.07.2012 19:06 25,4 C 67 % 1011,7 hPa 0,0 l/m 4,7 km/h (1 Bft) O-NO 67 18,8 C 25,4 C
05.07.2012 19:11 25,3 C 67 % 1011,6 hPa 0,0 l/m 9,7 km/h (2 Bft) O-SO 112 18,7 C 25,3 C
05.07.2012 19:16 25,3 C 67 % 1011,7 hPa 0,0 l/m 5,0 km/h (1 Bft) O-NO 67 18,7 C 25,3 C
05.07.2012 19:21 25,2 C 67 % 1011,6 hPa 0,0 l/m 7,9 km/h (2 Bft) NO 45 18,6 C 25,2 C
05.07.2012 19:26 25,1 C 68 % 1011,7 hPa 0,0 l/m 0,0 km/h (0 Bft) NO 45 18,8 C 25,1 C
05.07.2012 19:31 25,0 C 68 % 1011,7 hPa 0,0 l/m 8,6 km/h (2 Bft) O-NO 67 18,7 C 25,0 C
05.07.2012 19:36 24,9 C 68 % 1011,8 hPa 0,0 l/m 4,7 km/h (1 Bft) O-NO 67 18,6 C 24,9 C
05.07.2012 19:41 24,9 C 69 % 1011,7 hPa 0,0 l/m 6,1 km/h (2 Bft) O-NO 67 18,8 C 24,9 C
05.07.2012 19:46 24,8 C 68 % 1011,8 hPa 0,0 l/m 5,0 km/h (1 Bft) NO 45 18,5 C 24,8 C
05.07.2012 19:51 24,7 C 69 % 1011,4 hPa 0,0 l/m 4,3 km/h (1 Bft) NO 45 18,6 C 24,7 C
05.07.2012 19:56 24,6 C 69 % 1011,3 hPa 0,0 l/m 3,2 km/h (1 Bft) NO 45 18,5 C 24,6 C
05.07.2012 20:01 24,4 C 70 % 1011,1 hPa 0,0 l/m 7,6 km/h (2 Bft) NO 45 18,6 C 24,4 C
05.07.2012 20:06 24,4 C 70 % 1011,1 hPa 0,0 l/m 4,0 km/h (1 Bft) N-NO 22 18,6 C 24,4 C
05.07.2012 20:11 24,3 C 70 % 1011,1 hPa 0,0 l/m 6,5 km/h (2 Bft) O 90 18,5 C 24,3 C
05.07.2012 20:16 24,3 C 71 % 1011,2 hPa 0,0 l/m 4,7 km/h (1 Bft) O-NO 67 18,7 C 24,3 C
05.07.2012 20:21 24,2 C 71 % 1011,2 hPa 0,0 l/m 8,6 km/h (2 Bft) O-NO 67 18,6 C 24,2 C
05.07.2012 20:26 24,1 C 71 % 1011,4 hPa 0,0 l/m 7,2 km/h (2 Bft) NO 45 18,5 C 24,1 C
05.07.2012 20:31 24,1 C 71 % 1011,2 hPa 0,0 l/m 9,4 km/h (2 Bft) O-NO 67 18,5 C 24,1 C
05.07.2012 20:36 24,3 C 71 % 1011,2 hPa 0,0 l/m 7,6 km/h (2 Bft) O-NO 67 18,7 C 24,3 C
05.07.2012 20:41 24,2 C 71 % 1011,2 hPa 0,0 l/m 5,0 km/h (1 Bft) O-NO 67 18,6 C 24,2 C
05.07.2012 20:46 24,0 C 71 % 1011,0 hPa 0,0 l/m 6,5 km/h (2 Bft) O 90 18,4 C 24,0 C
05.07.2012 20:51 23,9 C 72 % 1011,1 hPa 0,0 l/m 7,6 km/h (2 Bft) O-NO 67 18,5 C 23,9 C
05.07.2012 20:56 23,8 C 72 % 1011,0 hPa 0,0 l/m 12,6 km/h (3 Bft) NO 45 18,4 C 23,8 C
05.07.2012 21:01 23,6 C 73 % 1011,0 hPa 0,0 l/m 12,2 km/h (2 Bft) O-NO 67 18,5 C 23,6 C
05.07.2012 21:06 23,6 C 73 % 1011,0 hPa 0,0 l/m 5,4 km/h (1 Bft) O-NO 67 18,5 C 23,6 C
05.07.2012 21:11 23,4 C 74 % 1010,9 hPa 0,0 l/m 9,4 km/h (2 Bft) NO 45 18,5 C 23,4 C
05.07.2012 21:16 23,3 C 74 % 1010,9 hPa 0,0 l/m 5,8 km/h (2 Bft) NO 45 18,4 C 23,3 C
05.07.2012 21:21 23,3 C 75 % 1010,8 hPa 0,0 l/m 7,9 km/h (2 Bft) NO 45 18,6 C 23,3 C
05.07.2012 21:26 23,1 C 75 % 1010,7 hPa 0,0 l/m 11,2 km/h (2 Bft) NO 45 18,4 C 23,1 C
05.07.2012 21:31 23,1 C 75 % 1010,7 hPa 0,0 l/m 11,2 km/h (2 Bft) NO 45 18,4 C 23,1 C
05.07.2012 21:36 22,9 C 76 % 1010,8 hPa 0,0 l/m 3,6 km/h (1 Bft) NO 45 18,4 C 22,9 C
05.07.2012 21:41 22,9 C 77 % 1010,7 hPa 0,0 l/m 4,0 km/h (1 Bft) O-NO 67 18,6 C 22,9 C
05.07.2012 21:46 22,8 C 77 % 1010,6 hPa 0,0 l/m 9,7 km/h (2 Bft) O-NO 67 18,5 C 22,8 C
05.07.2012 21:51 22,6 C 78 % 1010,7 hPa 0,0 l/m 6,5 km/h (2 Bft) N-NO 22 18,6 C 22,6 C
05.07.2012 21:56 22,5 C 78 % 1010,5 hPa 0,0 l/m 14,4 km/h (3 Bft) N-NO 22 18,5 C 22,5 C
05.07.2012 22:01 22,4 C 79 % 1010,4 hPa 0,0 l/m 4,7 km/h (1 Bft) O-NO 67 18,6 C 22,4 C
05.07.2012 22:06 22,3 C 79 % 1010,4 hPa 0,0 l/m 4,0 km/h (1 Bft) O-NO 67 18,5 C 22,3 C
05.07.2012 22:11 22,1 C 79 % 1010,4 hPa 0,0 l/m 5,0 km/h (1 Bft) O-NO 67 18,3 C 22,1 C
05.07.2012 22:16 22,1 C 80 % 1010,6 hPa 0,0 l/m 10,1 km/h (2 Bft) O-NO 67 18,5 C 22,1 C
05.07.2012 22:21 21,9 C 80 % 1010,6 hPa 0,0 l/m 11,2 km/h (2 Bft) NO 45 18,3 C 21,9 C
05.07.2012 22:26 21,9 C 81 % 1010,8 hPa 0,0 l/m 14,8 km/h (3 Bft) O-NO 67 18,5 C 21,9 C
05.07.2012 22:31 21,8 C 81 % 1010,7 hPa 0,0 l/m 8,6 km/h (2 Bft) NO 45 18,4 C 21,8 C
05.07.2012 22:36 21,8 C 81 % 1010,9 hPa 0,0 l/m 6,5 km/h (2 Bft) N-NO 22 18,4 C 21,8 C
05.07.2012 22:41 21,6 C 82 % 1010,7 hPa 0,0 l/m 14,4 km/h (3 Bft) O-NO 67 18,4 C 21,6 C
05.07.2012 22:46 21,6 C 82 % 1010,6 hPa 0,0 l/m 6,5 km/h (2 Bft) NO 45 18,4 C 21,6 C
05.07.2012 22:51 21,5 C 82 % 1010,5 hPa 0,0 l/m 8,3 km/h (2 Bft) O-NO 67 18,3 C 21,5 C
05.07.2012 22:56 21,5 C 83 % 1010,6 hPa 0,0 l/m 6,1 km/h (2 Bft) O-NO 67 18,5 C 21,5 C
05.07.2012 23:01 21,4 C 83 % 1010,6 hPa 0,0 l/m 5,0 km/h (1 Bft) O-NO 67 18,4 C 21,4 C
05.07.2012 23:06 21,3 C 83 % 1010,5 hPa 0,0 l/m 5,4 km/h (1 Bft) NO 45 18,3 C 21,3 C
05.07.2012 23:11 21,3 C 83 % 1010,3 hPa 0,0 l/m 9,4 km/h (2 Bft) O-NO 67 18,3 C 21,3 C
05.07.2012 23:16 21,1 C 84 % 1010,3 hPa 0,0 l/m 5,8 km/h (2 Bft) NO 45 18,3 C 21,1 C
05.07.2012 23:21 21,1 C 84 % 1010,2 hPa 0,5 l/m 9,0 km/h (2 Bft) NO 45 18,3 C 21,1 C
05.07.2012 23:26 21,0 C 84 % 1010,1 hPa 0,0 l/m 3,2 km/h (1 Bft) NO 45 18,2 C 21,0 C
05.07.2012 23:31 20,9 C 85 % 1010,1 hPa 0,0 l/m 3,2 km/h (1 Bft) O-NO 67 18,3 C 20,9 C
05.07.2012 23:36 20,9 C 85 % 1010,2 hPa 0,0 l/m 4,0 km/h (1 Bft) NO 45 18,3 C 20,9 C
05.07.2012 23:41 20,8 C 85 % 1010,1 hPa 0,0 l/m 8,3 km/h (2 Bft) O-NO 67 18,2 C 20,8 C
05.07.2012 23:46 20,8 C 86 % 1010,1 hPa 0,0 l/m 10,4 km/h (2 Bft) NO 45 18,4 C 20,8 C
05.07.2012 23:51 20,7 C 86 % 1010,0 hPa 0,0 l/m 3,2 km/h (1 Bft) NO 45 18,3 C 20,7 C
05.07.2012 23:56 20,6 C 86 % 1010,0 hPa 0,0 l/m 3,2 km/h (1 Bft) NO 45 18,2 C 20,6 C
_ Min-Zeit 04:46 15:21 23:51 - 04:11 - - 04:36 04:46
Minimum _ 15,7 C 60 % 1010,0 hPa - 0,0 km/h (0 Bft) - - 13,6 C 15,7 C
_ Max-Zeit 15:21 06:01 01:36 23:21 16:16 - - 19:01 15:21
Maximum _ 26,9 C 91 % 1016,3 hPa 0,5 l/m 20,9 km/h
O-SO (4 Bft)
- - 18,9 C 26,9 C
Durchschnitt _ 21,2 C 78 % 1013,8 hPa #0,5 l/m 6,7 km/h (2 Bft) O-NO - 17,0 C 21,2 C
(c) by David Heller